大阪空港の過去48時間の天気

大阪空港 (Osaka/Intl)

現在時刻: 2/23 21:49 JST (2/23 12:49 UTC) 以下の時間は現地時間です。

過去48時間のMETAR気象情報
時間 風向 風速(m/s) 視程 気温(℃) 湿度(%) 気圧(hPa) 天気現象
23 20:00 北北西 5 10km以上 7 42 1025
23 19:00 北西 3 10km以上 8 37 1024
23 18:00 西北西 3 10km以上 9 32 1023
23 17:00 西南西 4 10km以上 10 27 1022
23 16:00 南西 6 10km以上 10 27 1021
23 15:00 南西 4 10km以上 11 26 1020
23 14:00 南西 4 10km以上 11 26 1020
23 13:00 南南西 4 10km以上 10 27 1020
23 12:00 南南西 4 10km以上 10 32 1021
23 11:00 南西 4 10km以上 9 29 1022
23 10:00 西南西 4 10km以上 8 31 1022
23 09:00 不定 1 10km以上 5 52 1022
23 08:00 不定 1 10km以上 2 64 1022
23 07:00 北西 3 10km以上 1 69 1021
23 06:00 西北西 2 10km以上 1 69 1021
23 05:00 北北西 3 10km以上 1 69 1020
22 20:00 不定 1 10km以上 7 49 1019
22 19:00 南南西 2 10km以上 7 45 1018
22 18:00 西南西 2 10km以上 8 39 1019
22 17:00 南西 3 10km以上 9 37 1018
22 16:00 南西 3 10km以上 9 37 1018
22 15:00 西南西 2 10km以上 10 34 1017
22 14:00 南西 2 10km以上 10 32 1018
22 09:00 不定 2 10km以上 5 52 1021
22 08:00 北北西 3 10km以上 4 65 1021
22 07:00 北西 3 10km以上 2 75 1021
22 06:00 西北西 2 10km以上 3 65 1020
22 05:00 北西 3 10km以上 3 65 1020
RJOO 231100Z 34009KT 9999 FEW030 07/M05 Q1025 RMK 1CU030 A3027
RJOO 231000Z 32005KT 9999 FEW030 08/M06 Q1024 RMK 1CU030 A3025
RJOO 230900Z 30005KT 250V330 9999 FEW035 09/M07 Q1023 RMK 1CU035 A3023
RJOO 230800Z 24007KT 190V280 9999 FEW035 10/M08 Q1022 RMK 1CU035 A3019
RJOO 230700Z 23011KT 9999 FEW035 10/M08 Q1021 RMK 1CU035 A3016
RJOO 230600Z 23008KT 170V270 9999 FEW035 11/M08 Q1020 RMK 1CU035 A3014
RJOO 230500Z 22008KT 170V260 9999 FEW030 11/M08 Q1020 RMK 1CU030 A3012
RJOO 230400Z 21008KT 160V250 9999 FEW030 10/M08 Q1020 RMK 1CU030 A3014
RJOO 230300Z 21008KT 160V240 9999 FEW025 10/M06 Q1021 RMK 1CU025 A3015
RJOO 230200Z 22007KT 170V260 9999 FEW025 09/M08 Q1022 RMK 1CU025 A3018
RJOO 230100Z 24007KT 200V290 9999 FEW025 08/M08 Q1022 RMK 1CU025 A3019
RJOO 230000Z VRB01KT 9999 FEW025 05/M04 Q1022 RMK 1CU025 A3018
RJOO 222300Z VRB02KT 9999 FEW025 BKN/// 02/M04 Q1022
RJOO 222200Z 32006KT 9999 FEW025 SCT060 BKN/// 01/M04 Q1021
RJOO 222100Z 29003KT 9999 FEW025 BKN/// 01/M04 Q1021 RMK 1CU025 A3015
RJOO 222000Z 33005KT 9999 FEW025 SCT060 01/M04 Q1020 RMK 1CU025 4SC060 A3013
RJOO 221100Z VRB02KT 9999 FEW025 BKN/// 07/M03 Q1019
RJOO 221000Z 21003KT 140V270 9999 FEW025 BKN/// 07/M04 Q1018 RMK 1CU025 A3009 MOD TURB OBS AT 0949Z 10NM NE OHDAI 13000FT B738
RJOO 220900Z 24003KT 9999 FEW025 BKN/// 08/M05 Q1019
RJOO 220800Z 23005KT 9999 FEW030 BKN/// 09/M05 Q1018 RMK 1CU030 A3008
RJOO 220700Z 23005KT 180V270 9999 FEW030 BKN/// 09/M05 Q1018 RMK 1CU030 A3006
RJOO 220600Z 24004KT 180V300 9999 FEW030 BKN/// 10/M05 Q1017 RMK 1CU030 A3005
RJOO 220500Z 22003KT 160V280 9999 FEW030 BKN/// 10/M06 Q1018 RMK 1CU030 A3007
RJOO 220000Z VRB04KT 9999 FEW020 SCT060 BKN/// 05/M04 Q1021
RJOO 212300Z 33005KT 9999 FEW010 SCT060 BKN/// 04/M02 Q1021 RMK 1ST010 3SC060 A3017
RJOO 212200Z 32006KT 9999 FEW010 BKN050 02/M02 Q1021 RMK 1ST010 5SC050 A3015
RJOO 212100Z 30003KT 240V350 9999 FEW010 BKN060 03/M03 Q1020 RMK 1ST010 5SC060 A3015
RJOO 212000Z 32005KT 9999 FEW010 SCT030 BKN060 03/M03 Q1020 RMK 1ST010 3CU030 5SC060 A3013